Time;durP1;ratioP1;P1;durP2;ratioP2;P2;SDS_P1;SDS_P2;PMS_P1;PMS_P2;Temp;Humidity;BMP_temperature;BMP_pressure;BME280_temperature;BME280_humidity;BME280_pressure;Samples;Min_cycle;Max_cycle;Signal;HPM_P1;HPM_P2
2021/12/31 00:01:13;;;;;;;12.10;10.30;;;12.70;99.90;;;12.92;84.04;100943.03;4937846;29;20809;-70
2021/12/31 00:03:42;;;;;;;10.70;9.17;;;12.70;99.90;;;12.84;84.21;100935.13;4937364;29;20456;-70
2021/12/31 00:06:11;;;;;;;10.40;9.33;;;12.70;99.90;;;12.88;84.33;100939.91;4952475;29;20605;-70
2021/12/31 00:08:39;;;;;;;11.90;10.83;;;12.70;99.90;;;12.86;84.32;100930.31;4937755;29;20555;-72
2021/12/31 00:11:08;;;;;;;11.23;10.13;;;12.70;99.90;;;12.83;84.44;100939.72;4937659;29;20392;-74
2021/12/31 00:13:36;;;;;;;11.40;10.30;;;12.70;99.90;;;12.84;84.60;100941.38;4937899;29;20418;-71
2021/12/31 00:16:05;;;;;;;10.50;9.50;;;12.70;99.90;;;12.84;84.82;100951.41;4937973;29;20435;-73
2021/12/31 00:18:35;;;;;;;10.67;9.67;;;12.70;99.90;;;12.84;84.82;100945.97;4935456;29;20464;-70
2021/12/31 00:21:05;;;;;;;11.30;10.20;;;12.70;99.90;;;12.81;85.05;100941.00;4937249;29;20449;-72
2021/12/31 00:23:33;;;;;;;10.33;9.33;;;12.70;99.90;;;12.78;85.19;100930.56;4937128;29;20470;-70
2021/12/31 00:26:02;;;;;;;10.40;9.37;;;12.60;99.90;;;12.75;85.28;100920.97;4936935;29;20424;-70
2021/12/31 00:28:30;;;;;;;11.53;9.93;;;12.60;99.90;;;12.74;85.43;100923.88;4937232;29;20816;-73
2021/12/31 00:31:01;;;;;;;11.23;10.10;;;12.60;99.90;;;12.79;85.53;100930.34;4936772;29;20566;-71
2021/12/31 00:33:29;;;;;;;11.60;9.63;;;12.60;99.90;;;12.79;85.50;100927.63;4936921;29;20421;-71
2021/12/31 00:35:59;;;;;;;12.47;11.17;;;12.60;99.90;;;12.83;85.47;100938.91;4934773;29;20820;-70
2021/12/31 00:38:28;;;;;;;13.20;11.20;;;12.60;99.90;;;12.80;85.52;100931.19;4934878;29;20457;-71
2021/12/31 00:40:56;;;;;;;13.27;11.97;;;12.60;99.90;;;12.83;85.42;100923.41;4935439;28;20436;-69
2021/12/31 00:43:25;;;;;;;12.67;11.37;;;12.60;99.90;;;12.85;85.35;100920.50;4936159;29;20452;-72
2021/12/31 00:45:53;;;;;;;12.83;11.53;;;12.60;99.90;;;12.86;85.22;100922.19;4936375;29;20411;-72
2021/12/31 00:48:22;;;;;;;14.23;12.87;;;12.60;99.90;;;12.82;84.98;100931.81;4935939;29;20805;-69
2021/12/31 00:50:50;;;;;;;14.93;11.50;;;12.60;99.90;;;12.79;85.28;100915.94;4935691;29;20428;-71
2021/12/31 00:53:20;;;;;;;15.97;12.23;;;12.60;99.90;;;12.84;85.36;100927.81;4937087;29;20916;-73
2021/12/31 00:55:48;;;;;;;14.13;12.73;;;12.60;99.90;;;12.92;84.72;100932.19;4935002;29;20416;-71
2021/12/31 00:58:17;;;;;;;15.87;13.30;;;12.70;99.90;;;12.93;84.66;100929.22;4936125;29;20445;-74
2021/12/31 01:00:45;;;;;;;15.40;12.63;;;12.70;99.90;;;12.96;84.79;100944.28;4936910;29;20464;-71
2021/12/31 01:03:15;;;;;;;15.90;13.47;;;12.70;99.90;;;13.00;84.44;100937.34;4939049;29;20462;-72
2021/12/31 01:05:44;;;;;;;17.37;13.10;;;12.80;99.90;;;12.97;84.61;100940.50;4937351;29;20399;-72
2021/12/31 01:08:12;;;;;;;13.93;11.57;;;12.80;99.90;;;13.01;84.53;100939.03;4935885;29;20431;-72
2021/12/31 01:10:42;;;;;;;12.23;11.10;;;12.80;99.90;;;13.02;84.51;100937.97;4935699;28;20448;-71
2021/12/31 01:13:18;;;;;;;12.97;11.63;;;12.80;99.90;;;13.10;84.06;100943.16;4936367;29;20472;-72
2021/12/31 01:15:49;;;;;;;13.43;12.03;;;12.90;99.90;;;13.08;84.03;100948.78;4935690;29;20923;-71
2021/12/31 01:18:26;;;;;;;12.57;11.37;;;12.90;99.90;;;13.03;84.27;100951.31;4934702;29;20456;-71
2021/12/31 01:20:55;;;;;;;11.80;10.60;;;12.80;99.90;;;13.01;84.30;100947.19;4935361;29;20505;-72
2021/12/31 01:23:23;;;;;;;12.27;11.07;;;12.90;99.90;;;13.01;84.11;100953.44;4934093;29;20446;-71
2021/12/31 01:25:53;;;;;;;12.63;11.43;;;12.80;99.90;;;13.04;83.87;100960.31;4934789;29;20433;-71
2021/12/31 01:28:22;;;;;;;11.50;10.30;;;12.80;99.90;;;13.11;83.99;100958.44;4933925;28;21083;-72
2021/12/31 01:30:50;;;;;;;11.40;10.37;;;12.90;99.90;;;13.10;84.12;100950.47;4934296;28;20448;-72
2021/12/31 01:33:19;;;;;;;13.30;11.90;;;12.90;99.90;;;13.02;84.62;100954.28;4934116;29;20412;-73
2021/12/31 01:35:47;;;;;;;11.93;10.70;;;12.90;99.90;;;13.05;84.59;100953.84;4934759;29;20491;-71
2021/12/31 01:38:16;;;;;;;13.03;10.47;;;12.90;99.90;;;13.03;84.66;100955.91;4934987;29;20453;-72
2021/12/31 01:40:45;;;;;;;10.80;9.70;;;12.90;99.90;;;13.03;84.65;100961.34;4933992;29;20430;-72
2021/12/31 01:43:16;;;;;;;10.60;9.60;;;12.90;99.90;;;12.98;84.89;100953.84;4933374;29;20443;-72
2021/12/31 01:45:53;;;;;;;13.80;12.40;;;12.80;99.90;;;13.09;84.36;100960.50;4934468;29;20432;-71
2021/12/31 01:48:25;;;;;;;11.07;9.90;;;12.80;99.90;;;13.00;84.46;100949.06;4934252;29;20558;-71
2021/12/31 01:50:54;;;;;;;11.80;10.70;;;12.80;99.90;;;13.09;84.22;100960.50;4934506;29;20420;-71
2021/12/31 01:53:23;;;;;;;11.60;10.37;;;12.90;99.90;;;13.14;83.83;100955.28;4934185;29;20417;-71
2021/12/31 01:55:56;;;;;;;10.00;9.00;;;12.90;99.90;;;13.14;83.65;100960.72;4936029;29;20411;-71
2021/12/31 01:58:28;;;;;;;10.27;9.27;;;12.90;99.90;;;13.15;83.06;100956.94;4938081;29;20494;-70
2021/12/31 02:00:58;;;;;;;8.67;7.87;;;12.90;99.90;;;13.18;83.21;100948.34;4935721;29;20421;-71
2021/12/31 02:03:27;;;;;;;7.27;6.60;;;13.00;99.90;;;13.16;83.26;100953.19;4934287;29;21002;-71
2021/12/31 02:05:55;;;;;;;6.90;6.30;;;13.00;99.90;;;13.22;82.84;100959.63;4934147;29;20763;-70
2021/12/31 02:08:25;;;;;;;8.70;6.90;;;13.00;99.90;;;13.18;82.99;100956.50;4932661;29;20477;-72
2021/12/31 02:10:54;;;;;;;7.63;6.90;;;13.00;99.90;;;13.15;82.86;100966.97;4933191;29;20947;-71
2021/12/31 02:13:22;;;;;;;7.90;7.20;;;13.00;99.90;;;13.17;82.72;100959.47;4934650;29;20441;-72
2021/12/31 02:15:53;;;;;;;6.77;6.17;;;13.00;99.90;;;13.15;83.10;100964.28;4932971;28;20478;-71
2021/12/31 02:18:21;;;;;;;7.63;6.83;;;13.00;99.90;;;13.10;83.31;100959.44;4933636;29;20459;-71
2021/12/31 02:20:51;;;;;;;8.80;7.90;;;12.90;99.90;;;13.05;83.48;100970.13;4933367;29;20412;-71
2021/12/31 02:23:24;;;;;;;8.50;7.30;;;12.90;99.90;;;13.00;83.87;100957.22;4933503;29;20428;-71
2021/12/31 02:25:53;;;;;;;8.23;6.97;;;12.90;99.90;;;12.93;84.27;100966.41;4933364;29;20956;-71
2021/12/31 02:28:22;;;;;;;9.60;8.20;;;12.80;99.90;;;12.84;84.46;100970.44;4932235;29;20439;-72
2021/12/31 02:30:52;;;;;;;7.93;6.97;;;12.80;99.90;;;12.85;84.37;100983.81;4933994;29;20428;-72
2021/12/31 02:33:21;;;;;;;8.33;6.70;;;12.70;99.90;;;12.86;84.03;100969.19;4932503;29;20449;-71
2021/12/31 02:35:51;;;;;;;9.60;7.33;;;12.70;99.90;;;12.91;84.15;100982.13;4933466;29;20411;-70
2021/12/31 02:38:19;;;;;;;10.33;7.60;;;12.70;99.90;;;12.94;83.70;100978.94;4933842;29;20460;-70
2021/12/31 02:40:48;;;;;;;12.43;7.60;;;12.80;99.90;;;12.88;83.92;100986.06;4932531;29;20805;-72
2021/12/31 02:43:16;;;;;;;8.17;7.37;;;12.70;99.90;;;12.93;84.03;100985.44;4933948;29;20421;-70
2021/12/31 02:45:45;;;;;;;7.90;7.13;;;12.70;99.90;;;12.88;83.97;100983.34;4932460;29;21014;-72
2021/12/31 02:48:13;;;;;;;13.43;9.10;;;12.70;99.90;;;12.93;83.70;100980.00;4933651;29;20423;-70
2021/12/31 02:50:43;;;;;;;8.90;8.00;;;12.70;99.90;;;12.95;83.47;100988.78;4932270;28;20451;-71
2021/12/31 02:53:15;;;;;;;9.17;7.40;;;12.80;99.90;;;12.98;83.45;100988.34;4932387;29;20444;-70
2021/12/31 02:55:46;;;;;;;8.07;7.27;;;12.80;99.90;;;12.92;83.65;100971.03;4932946;29;20511;-70
2021/12/31 02:58:14;;;;;;;9.63;8.63;;;12.70;99.90;;;12.91;83.45;100973.97;4933341;29;20432;-71
2021/12/31 03:00:44;;;;;;;9.50;8.60;;;12.70;99.90;;;12.95;83.14;100978.75;4932225;29;20437;-71
2021/12/31 03:03:16;;;;;;;12.13;11.03;;;12.70;99.90;;;12.95;83.10;100972.47;4933938;29;20411;-71
2021/12/31 03:05:46;;;;;;;12.20;9.67;;;12.80;99.90;;;12.93;83.15;100967.25;4933109;29;20476;-72
2021/12/31 03:08:19;;;;;;;12.00;9.80;;;12.80;99.90;;;12.93;83.33;100963.69;4933485;29;20449;-70
2021/12/31 03:10:49;;;;;;;11.33;9.90;;;12.80;99.90;;;12.93;83.10;100966.41;4933931;29;20442;-71
2021/12/31 03:13:18;;;;;;;10.47;9.50;;;12.80;99.90;;;12.95;83.02;100964.34;4934360;29;20806;-71
2021/12/31 03:15:48;;;;;;;9.67;8.73;;;12.70;99.90;;;12.95;83.00;100964.34;4937020;29;20535;-71
2021/12/31 03:18:19;;;;;;;11.03;9.10;;;12.80;99.90;;;12.89;83.11;100960.59;4937186;29;20507;-70
2021/12/31 03:20:57;;;;;;;10.90;9.77;;;12.70;99.90;;;12.90;83.01;100954.13;4936713;29;20527;-72
2021/12/31 03:23:29;;;;;;;11.77;10.53;;;12.70;99.90;;;12.84;83.03;100954.97;4937371;29;20402;-72
2021/12/31 03:25:57;;;;;;;11.50;10.03;;;12.70;99.90;;;12.91;82.97;100950.34;4936774;29;20802;-71
2021/12/31 03:28:27;;;;;;;11.23;10.13;;;12.70;99.90;;;12.91;83.01;100960.38;4936809;29;20448;-70
2021/12/31 03:30:56;;;;;;;10.43;9.43;;;12.70;99.90;;;12.91;83.07;100952.22;4935327;29;20480;-72
2021/12/31 03:33:24;;;;;;;11.27;10.17;;;12.70;99.90;;;13.01;82.48;100963.47;4936539;29;20425;-73
2021/12/31 03:35:53;;;;;;;11.43;10.33;;;12.80;99.90;;;12.94;82.78;100962.66;4936461;29;20417;-71
2021/12/31 03:38:21;;;;;;;12.77;11.00;;;12.80;99.90;;;12.94;82.96;100957.22;4936458;29;20859;-71
2021/12/31 03:40:51;;;;;;;12.20;11.03;;;12.80;99.90;;;12.96;83.06;100955.13;4935084;28;20456;-71
2021/12/31 03:43:20;;;;;;;13.27;9.87;;;12.80;99.90;;;12.95;82.80;100959.75;4936829;28;20470;-70
2021/12/31 03:45:50;;;;;;;13.03;11.77;;;12.80;99.90;;;12.89;83.01;100970.63;4936201;29;20517;-72
2021/12/31 03:48:20;;;;;;;20.30;12.30;;;12.70;99.90;;;12.97;82.98;100957.63;4934989;29;20442;-70
2021/12/31 03:50:49;;;;;;;14.57;12.23;;;12.70;99.90;;;13.03;82.65;100969.50;4936152;29;20832;-71
2021/12/31 03:53:18;;;;;;;11.97;10.97;;;12.80;99.90;;;13.02;82.61;100967.88;4934753;28;20426;-70
2021/12/31 03:55:47;;;;;;;9.97;9.03;;;12.80;99.90;;;12.99;82.50;100960.13;4936585;29;20403;-71
2021/12/31 03:58:18;;;;;;;11.80;10.60;;;12.80;99.90;;;12.99;82.68;100965.56;4936066;29;20773;-71
2021/12/31 04:00:46;;;;;;;12.13;10.73;;;12.80;99.90;;;13.02;82.41;100960.53;4936509;29;20800;-71
2021/12/31 04:03:16;;;;;;;12.30;11.10;;;12.90;99.90;;;13.04;82.42;100968.47;4936466;29;20808;-73
2021/12/31 04:05:45;;;;;;;12.77;11.57;;;12.90;99.90;;;13.06;82.44;100960.94;4937132;29;20430;-72
2021/12/31 04:08:14;;;;;;;12.30;11.17;;;12.80;99.90;;;13.01;82.58;100963.47;4941206;29;20452;-71
2021/12/31 04:10:43;;;;;;;12.07;10.50;;;12.90;99.90;;;13.03;82.44;100962.19;4945823;29;20421;-72
2021/12/31 04:13:12;;;;;;;11.70;10.60;;;12.80;99.90;;;12.91;82.88;100957.66;4942940;29;20452;-70
2021/12/31 04:15:42;;;;;;;15.50;12.50;;;12.80;99.90;;;12.99;82.89;100954.69;4943013;29;20436;-70
2021/12/31 04:18:11;;;;;;;12.80;10.87;;;12.80;99.90;;;12.98;82.72;100953.03;4945344;29;20457;-70
2021/12/31 04:20:42;;;;;;;13.13;11.83;;;12.80;99.90;;;13.00;82.81;100946.34;4946117;29;20425;-71
2021/12/31 04:23:25;;;;;;;13.73;11.60;;;12.80;99.90;;;12.99;82.61;100946.53;4942628;29;20451;-70
2021/12/31 04:25:54;;;;;;;16.00;12.53;;;12.80;99.90;;;12.96;82.75;100941.56;4942543;29;21006;-71
2021/12/31 04:28:23;;;;;;;13.73;12.40;;;12.80;99.90;;;13.00;82.76;100940.06;4942126;29;20482;-70
2021/12/31 04:30:52;;;;;;;14.07;11.40;;;12.80;99.90;;;12.96;82.53;100939.69;4937460;29;20448;-70
2021/12/31 04:33:21;;;;;;;12.07;10.87;;;12.80;99.90;;;12.96;82.48;100941.56;4936063;29;20440;-71
2021/12/31 04:35:50;;;;;;;12.33;11.13;;;12.80;99.90;;;12.91;82.63;100930.50;4935892;29;20424;-72
2021/12/31 04:38:18;;;;;;;12.20;10.93;;;12.80;99.90;;;12.83;82.89;100944.34;4936451;29;20423;-71
2021/12/31 04:40:47;;;;;;;16.20;12.17;;;12.70;99.90;;;12.72;83.06;100934.16;4937446;29;20701;-69
2021/12/31 04:43:16;;;;;;;12.90;11.63;;;12.60;99.90;;;12.76;82.84;100938.94;4937596;29;20408;-72
2021/12/31 04:45:45;;;;;;;14.23;11.20;;;12.60;99.90;;;12.64;83.12;100935.19;4936354;29;20929;-72
2021/12/31 04:48:15;;;;;;;11.13;10.03;;;12.50;99.90;;;12.69;82.97;100934.56;4935901;29;20971;-71
2021/12/31 04:50:43;;;;;;;12.40;11.20;;;12.50;99.90;;;12.66;82.87;100929.56;4934132;29;20588;-70
2021/12/31 04:53:12;;;;;;;12.23;11.03;;;12.50;99.90;;;12.67;82.64;100939.38;4933969;29;20545;-70
2021/12/31 04:55:40;;;;;;;13.07;10.50;;;12.50;99.90;;;12.73;82.61;100943.97;4934748;29;20432;-71
2021/12/31 04:58:09;;;;;;;11.00;10.00;;;12.50;99.90;;;12.79;82.44;100937.66;4934587;29;20934;-71
2021/12/31 05:00:37;;;;;;;11.63;9.53;;;12.50;99.90;;;12.80;82.19;100928.47;4934958;29;20471;-71
2021/12/31 05:03:08;;;;;;;10.37;9.47;;;12.60;99.90;;;12.85;81.50;100937.63;4934817;29;20427;-72
2021/12/31 05:05:38;;;;;;;11.53;9.67;;;12.60;99.90;;;12.85;81.47;100931.38;4935435;29;20461;-72
2021/12/31 05:08:07;;;;;;;9.97;9.00;;;12.60;99.90;;;12.85;81.06;100948.50;4935220;29;20431;-71
2021/12/31 05:10:35;;;;;;;9.30;8.30;;;12.70;99.90;;;12.84;81.21;100941.38;4933226;28;20403;-71
2021/12/31 05:13:06;;;;;;;9.40;8.47;;;12.60;99.90;;;12.96;80.70;100947.81;4934988;29;20411;-71
2021/12/31 05:15:38;;;;;;;8.07;7.37;;;12.70;99.90;;;12.90;80.33;100936.97;4933701;29;20944;-71
2021/12/31 05:18:06;;;;;;;9.30;8.40;;;12.70;99.90;;;12.89;80.59;100943.47;4935199;29;20563;-71
2021/12/31 05:20:36;;;;;;;7.60;6.90;;;12.70;99.90;;;13.02;79.74;100941.50;4933810;28;20437;-70
2021/12/31 05:23:05;;;;;;;8.13;7.43;;;12.80;99.90;;;13.06;79.45;100947.34;4935168;29;20433;-70
2021/12/31 05:25:34;;;;;;;14.60;7.50;;;12.90;99.90;;;13.02;79.47;100937.97;4936469;29;20991;-70
2021/12/31 05:28:03;;;;;;;6.47;5.93;;;12.90;99.90;;;13.06;79.48;100940.03;4941571;29;20456;-70
2021/12/31 05:30:31;;;;;;;7.20;6.37;;;12.90;99.90;;;13.13;78.95;100940.03;4941836;29;20426;-72
2021/12/31 05:33:00;;;;;;;7.70;7.00;;;12.90;99.90;;;13.01;79.50;100947.19;4940975;29;20465;-72
2021/12/31 05:35:28;;;;;;;7.50;6.80;;;12.80;99.90;;;13.05;79.34;100942.97;4942565;29;20429;-71
2021/12/31 05:37:58;;;;;;;6.90;6.37;;;12.90;99.90;;;13.12;78.82;100960.09;4942114;29;20434;-70
2021/12/31 05:40:27;;;;;;;5.53;5.03;;;12.90;99.90;;;13.08;78.83;100948.78;4935504;29;20918;-71
2021/12/31 05:42:56;;;;;;;8.40;6.47;;;12.90;99.90;;;13.04;78.93;100952.16;4935252;29;20432;-71
2021/12/31 05:45:25;;;;;;;6.67;6.17;;;12.90;99.90;;;13.12;78.54;100946.50;4934115;28;20998;-71
2021/12/31 05:48:06;;;;;;;5.33;4.93;;;12.90;99.90;;;13.17;78.38;100935.00;4942571;29;20419;-71
2021/12/31 05:50:34;;;;;;;7.43;5.70;;;12.90;99.90;;;13.09;78.40;100936.03;4942905;29;20407;-69
2021/12/31 05:53:04;;;;;;;8.03;6.80;;;12.90;99.90;;;13.11;78.57;100935.84;4944176;29;20411;-70
2021/12/31 05:55:32;;;;;;;8.40;6.70;;;12.90;99.90;;;13.17;78.21;100924.94;4944716;29;20433;-71
2021/12/31 05:58:02;;;;;;;6.30;5.70;;;12.90;99.90;;;13.19;78.01;100928.28;4943642;29;21086;-71
2021/12/31 06:00:30;;;;;;;8.50;7.00;;;13.00;99.90;;;13.17;78.15;100943.97;4938814;29;20782;-71
2021/12/31 06:03:00;;;;;;;10.93;7.13;;;13.00;99.90;;;13.14;78.22;100944.41;4934659;29;20857;-71
2021/12/31 06:05:28;;;;;;;7.17;6.57;;;13.00;99.90;;;13.14;77.99;100960.72;4933529;29;20463;-71
2021/12/31 06:07:59;;;;;;;7.23;6.63;;;13.00;99.90;;;13.15;77.92;100956.94;4933859;28;20496;-70
2021/12/31 06:10:29;;;;;;;8.33;7.00;;;13.00;99.90;;;13.19;78.00;100971.75;4934314;29;20759;-73
2021/12/31 06:12:59;;;;;;;6.77;6.17;;;13.00;99.90;;;13.22;77.58;100963.16;4934113;29;20419;-72
2021/12/31 06:15:29;;;;;;;7.47;6.83;;;13.00;99.90;;;13.16;77.71;100952.34;4933615;29;20421;-71
2021/12/31 06:17:58;;;;;;;6.93;6.40;;;13.00;99.90;;;13.12;77.72;100949.22;4933935;29;20456;-71
2021/12/31 06:20:28;;;;;;;6.70;6.00;;;13.00;99.90;;;13.23;77.50;100955.84;4934372;29;20432;-73
2021/12/31 06:22:58;;;;;;;6.67;6.00;;;13.00;99.90;;;13.26;77.62;100959.00;4934190;29;20992;-71
2021/12/31 06:25:29;;;;;;;9.53;7.40;;;13.00;99.90;;;13.19;77.53;100958.19;4936073;29;20804;-71
2021/12/31 06:27:58;;;;;;;7.20;6.50;;;13.00;99.90;;;13.21;77.42;100963.41;4935334;29;20902;-71
2021/12/31 06:30:26;;;;;;;6.30;5.80;;;13.10;99.90;;;13.16;77.66;100972.22;4933849;29;20500;-71
2021/12/31 06:32:55;;;;;;;6.63;6.00;;;13.00;99.90;;;13.20;77.40;100968.00;4934044;29;20429;-71
2021/12/31 06:35:24;;;;;;;7.40;6.70;;;13.00;99.90;;;13.19;77.46;100973.66;4933258;29;20469;-71
2021/12/31 06:37:54;;;;;;;7.13;6.53;;;13.00;99.90;;;13.18;77.62;100970.09;4932077;29;20464;-71
2021/12/31 06:40:23;;;;;;;9.87;6.43;;;13.00;99.90;;;13.16;77.59;100971.38;4932021;29;20445;-70
2021/12/31 06:42:54;;;;;;;7.43;6.53;;;13.00;99.90;;;13.17;77.43;100976.56;4933292;29;20432;-73
2021/12/31 06:45:22;;;;;;;7.70;6.97;;;13.00;99.90;;;13.20;77.60;100978.88;4933429;29;20914;-72
2021/12/31 06:47:51;;;;;;;8.10;7.27;;;13.00;99.90;;;13.15;77.65;100975.97;4933635;29;20862;-72
2021/12/31 06:50:20;;;;;;;7.30;6.70;;;13.00;99.90;;;13.14;77.88;100977.00;4932630;29;20441;-72
2021/12/31 06:52:48;;;;;;;8.23;7.53;;;13.00;99.90;;;13.15;77.71;100981.41;4934111;29;20788;-70
2021/12/31 06:55:17;;;;;;;7.17;6.60;;;12.90;99.90;;;13.11;77.88;100969.31;4933798;29;20429;-71
2021/12/31 06:57:46;;;;;;;8.03;7.23;;;12.90;99.90;;;13.10;78.28;100972.19;4934582;29;20750;-71
2021/12/31 07:00:17;;;;;;;9.83;6.93;;;12.90;99.90;;;13.16;78.00;100980.38;4933843;29;20448;-73
2021/12/31 07:02:46;;;;;;;9.30;7.40;;;12.90;99.90;;;13.14;77.83;100985.16;4935045;29;20461;-72
2021/12/31 07:05:14;;;;;;;8.60;7.50;;;13.00;99.90;;;13.17;77.80;100973.84;4941051;23;20584;-68
2021/12/31 07:07:43;;;;;;;9.20;7.50;;;13.00;99.90;;;13.10;77.94;100978.47;4907915;29;20871;-69
2021/12/31 07:10:14;;;;;;;7.63;7.10;;;13.00;99.90;;;13.15;77.95;100978.69;4900184;29;20818;-69
2021/12/31 07:12:42;;;;;;;7.73;7.13;;;13.00;99.90;;;13.19;77.72;100971.75;4900839;29;20502;-67
2021/12/31 07:15:11;;;;;;;7.50;6.90;;;13.00;99.90;;;13.18;77.68;100975.53;4900902;29;20529;-68
2021/12/31 07:17:41;;;;;;;7.03;6.33;;;13.00;99.90;;;13.21;77.69;100983.25;4899089;29;20449;-68
2021/12/31 07:20:10;;;;;;;9.07;7.53;;;13.00;99.90;;;13.21;77.79;100975.13;4960371;23;20492;-65
2021/12/31 07:22:39;;;;;;;8.20;7.40;;;13.00;99.90;;;13.21;77.62;100977.00;4948747;29;20439;-64
2021/12/31 07:25:08;;;;;;;9.60;7.87;;;13.00;99.90;;;13.17;77.79;100979.28;4953516;28;20890;-65
2021/12/31 07:27:36;;;;;;;8.20;7.10;;;13.00;99.90;;;13.17;77.63;100992.06;4953217;29;20461;-65
2021/12/31 07:30:06;;;;;;;9.53;8.73;;;13.00;99.90;;;13.15;77.81;100992.28;4953294;28;20452;-65
2021/12/31 07:32:37;;;;;;;7.80;7.20;;;12.90;99.90;;;13.15;77.76;100996.88;4953026;29;20390;-64
2021/12/31 07:35:07;;;;;;;7.80;7.10;;;12.90;99.90;;;13.09;77.81;100995.81;4953194;28;20436;-65
2021/12/31 07:37:37;;;;;;;8.50;7.67;;;12.90;99.90;;;13.15;77.48;101008.56;4952958;28;20487;-65
2021/12/31 07:40:10;;;;;;;7.90;7.13;;;13.00;99.90;;;13.14;77.36;101001.47;4953408;29;20567;-63
2021/12/31 07:42:39;;;;;;;8.20;7.37;;;13.00;99.90;;;13.21;77.47;101002.28;4953175;28;20815;-64
2021/12/31 07:45:09;;;;;;;10.30;7.83;;;13.00;99.90;;;13.24;77.34;100990.97;4952870;28;20424;-66
2021/12/31 07:47:37;;;;;;;7.13;6.50;;;13.00;99.90;;;13.38;76.53;100989.84;4952824;28;20485;-65
2021/12/31 07:50:10;;;;;;;7.80;7.20;;;13.10;99.90;;;13.26;76.79;100986.16;4953687;29;20550;-65
2021/12/31 07:52:39;;;;;;;8.50;6.97;;;13.10;99.90;;;13.27;76.86;100990.53;4952938;28;20435;-63
2021/12/31 07:55:08;;;;;;;7.37;6.77;;;13.10;99.90;;;13.24;76.96;100985.53;4952781;28;20427;-63
2021/12/31 07:57:36;;;;;;;6.93;6.27;;;13.10;99.90;;;13.33;76.40;100989.66;4952885;28;20840;-64
2021/12/31 08:00:07;;;;;;;8.57;7.80;;;13.10;99.90;;;13.26;76.88;100983.44;4954493;28;20479;-69
2021/12/31 08:02:39;;;;;;;7.73;7.00;;;13.10;99.90;;;13.28;76.44;100984.03;4956586;28;20404;-63
2021/12/31 08:05:11;;;;;;;7.50;6.90;;;13.10;99.90;;;13.32;76.50;100988.00;4956391;28;20762;-64
2021/12/31 08:07:39;;;;;;;9.47;5.90;;;13.10;99.90;;;13.30;76.42;100994.72;4956193;28;20426;-64
2021/12/31 08:10:09;;;;;;;11.90;6.13;;;13.10;99.90;;;13.31;76.40;100990.94;4956171;29;20507;-64
2021/12/31 08:13:00;;;;;;;6.30;5.80;;;13.10;99.90;;;13.35;76.29;100997.59;4956113;28;20412;-65
2021/12/31 08:15:29;;;;;;;6.90;6.27;;;13.10;99.90;;;13.40;75.90;100990.47;4956204;28;20523;-66
2021/12/31 08:17:57;;;;;;;6.97;6.03;;;13.20;99.90;;;13.34;76.21;100996.78;4955945;29;20462;-63
2021/12/31 08:20:30;;;;;;;6.10;5.60;;;13.10;99.90;;;13.40;75.84;100990.47;4956196;28;20449;-64
2021/12/31 08:23:06;;;;;;;6.83;6.23;;;13.20;99.90;;;13.37;75.81;100982.72;4956792;28;20428;-65
2021/12/31 08:25:35;;;;;;;7.13;6.47;;;13.20;99.90;;;13.41;75.77;100978.53;4955953;29;20413;-65
2021/12/31 08:28:03;;;;;;;6.67;5.60;;;13.20;99.90;;;13.42;75.45;100972.03;4955789;29;20676;-64
2021/12/31 08:30:32;;;;;;;6.77;5.60;;;13.20;99.90;;;13.42;75.54;100974.75;4956040;29;20628;-65
2021/12/31 08:33:01;;;;;;;6.17;5.53;;;13.20;99.90;;;13.40;75.44;100968.72;4955766;28;20918;-64
2021/12/31 08:35:31;;;;;;;5.63;4.67;;;13.20;99.90;;;13.39;75.55;100967.06;4955500;28;20399;-64
2021/12/31 08:37:59;;;;;;;4.83;4.43;;;13.20;99.90;;;13.46;75.04;100967.00;4955910;29;20406;-65
2021/12/31 08:40:28;;;;;;;5.87;5.27;;;13.20;99.90;;;13.41;75.15;100964.94;4956158;28;20466;-67
2021/12/31 08:42:56;;;;;;;5.33;4.80;;;13.20;99.90;;;13.40;75.13;100957.00;4956241;29;20406;-64
2021/12/31 08:45:33;;;;;;;6.83;5.47;;;13.20;99.90;;;13.44;74.63;100953.63;4955326;28;20498;-64
2021/12/31 08:48:03;;;;;;;6.73;5.10;;;13.20;99.90;;;13.48;74.81;100952.13;4954302;29;20520;-65
2021/12/31 08:50:35;;;;;;;4.47;4.07;;;13.20;99.90;;;13.47;74.98;100947.75;4955824;29;20403;-63
2021/12/31 08:53:05;;;;;;;4.67;4.27;;;13.30;99.90;;;13.55;74.66;100954.81;4955672;28;20925;-65
2021/12/31 08:55:34;;;;;;;5.20;4.43;;;13.30;99.90;;;13.54;74.49;100957.75;4955902;28;20435;-64
2021/12/31 08:58:02;;;;;;;6.13;5.33;;;13.30;99.90;;;13.56;74.58;100942.88;4955147;29;20457;-64
2021/12/31 09:00:31;;;;;;;7.00;3.53;;;13.30;99.90;;;13.45;74.58;100944.44;4955485;29;20469;-66
2021/12/31 09:02:59;;;;;;;4.83;3.73;;;13.30;99.90;;;13.55;74.19;100949.38;4954727;28;20443;-65
2021/12/31 09:05:28;;;;;;;4.47;3.30;;;13.30;99.90;;;13.53;74.28;100956.09;4955316;28;20783;-64
2021/12/31 09:07:57;;;;;;;9.37;4.90;;;13.40;99.90;;;13.60;74.04;100967.75;4955545;29;20495;-64
2021/12/31 09:10:26;;;;;;;3.53;3.23;;;13.40;99.90;;;13.66;73.86;100978.56;4955544;28;20454;-64
2021/12/31 09:12:54;;;;;;;4.10;3.70;;;13.40;99.90;;;13.60;74.18;100967.75;4954897;28;20797;-65
2021/12/31 09:15:23;;;;;;;4.40;4.00;;;13.40;99.90;;;13.70;73.59;100989.84;4956256;28;20504;-64
2021/12/31 09:17:51;;;;;;;3.97;3.67;;;13.50;99.90;;;13.72;73.81;100976.84;4957614;28;20616;-65
2021/12/31 09:20:19;;;;;;;4.17;3.37;;;13.50;99.90;;;13.59;74.15;100977.78;4957547;28;20438;-66
2021/12/31 09:22:48;;;;;;;7.60;4.83;;;13.50;99.90;;;13.68;74.18;100986.50;4956691;28;20435;-65
2021/12/31 09:25:18;;;;;;;9.40;4.50;;;13.40;99.90;;;13.70;73.92;100979.78;4955138;29;20432;-63
2021/12/31 09:27:46;;;;;;;5.60;4.13;;;13.50;99.90;;;13.64;74.20;100986.13;4955195;28;21029;-66
2021/12/31 09:30:14;;;;;;;6.07;4.10;;;13.40;99.90;;;13.63;74.29;100978.19;4955471;28;20452;-65
2021/12/31 09:32:43;;;;;;;5.23;4.00;;;13.50;99.90;;;13.70;73.97;100989.84;4955048;28;20844;-65
2021/12/31 09:35:11;;;;;;;3.97;3.57;;;13.50;99.90;;;13.71;73.92;100986.91;4954670;28;20430;-65
2021/12/31 09:37:40;;;;;;;5.17;4.03;;;13.40;99.90;;;13.71;73.66;100986.06;4954635;29;20470;-65
2021/12/31 09:40:12;;;;;;;9.10;4.30;;;13.50;99.90;;;13.73;73.41;100976.66;4954863;28;20456;-66
2021/12/31 09:42:52;;;;;;;6.47;4.00;;;13.50;99.90;;;13.80;73.45;100968.41;4955196;29;20424;-67
2021/12/31 09:45:22;;;;;;;8.20;3.50;;;13.60;99.90;;;13.77;73.18;100964.25;4955570;29;20391;-63
2021/12/31 09:47:51;;;;;;;3.40;3.10;;;13.60;99.90;;;13.89;72.78;100972.56;4955620;28;20494;-66
2021/12/31 09:50:21;;;;;;;3.60;3.07;;;13.60;99.90;;;13.90;72.45;100963.31;4955241;28;20515;-63
2021/12/31 09:52:51;;;;;;;4.93;3.93;;;13.70;99.90;;;13.93;72.27;100968.31;4956090;28;20413;-63
2021/12/31 09:55:36;;;;;;;4.93;3.53;;;13.70;99.90;;;13.87;72.49;100964.59;4956273;28;21102;-62
2021/12/31 09:58:07;;;;;;;5.00;3.10;;;13.60;99.90;;;13.98;72.19;100973.94;4955926;29;20407;-63
2021/12/31 10:00:41;;;;;;;9.40;4.33;;;13.70;99.90;;;14.02;71.76;100960.72;4955895;29;20925;-62
2021/12/31 10:03:16;;;;;;;12.03;3.67;;;13.80;99.90;;;13.99;71.91;100964.69;4955732;29;21253;-64
2021/12/31 10:05:48;;;;;;;5.73;3.03;;;13.80;99.90;;;13.99;71.63;100956.53;4955312;29;20391;-63
2021/12/31 10:08:22;;;;;;;4.00;3.00;;;13.80;99.90;;;13.97;71.56;100955.94;4955337;29;20905;-63
2021/12/31 10:11:10;;;;;;;3.63;3.07;;;13.70;99.90;;;13.94;71.79;100959.13;4955022;28;20915;-64
2021/12/31 10:13:43;;;;;;;4.70;2.83;;;13.70;99.90;;;13.98;71.20;100957.63;4954915;29;20406;-63
2021/12/31 10:16:23;;;;;;;3.13;2.90;;;13.70;99.90;;;14.04;70.91;100953.97;4954696;28;20839;-63
2021/12/31 10:19:06;;;;;;;2.57;2.37;;;13.80;99.90;;;14.02;71.13;100947.94;4954743;28;20956;-62